Latest Coastal Weather Observations for Low Isles

IDQ60701

Issued at 2:13 pm EST Wednesday 22 September 2021 (issued every 10 minutes, with the page automatically refreshed every 10 minutes)

About coastal observations | Map of coastal stations | Coastal observations for QLD | Marine services | Other Formats
Station Details ID: 031037 Name: LOW ISLES LIGHTHOUSE Lat: -16.38 Lon: 145.56 Height: 2.9 m
Data from the previous 72 hours. | See also: Recent months at Low Isles
Date/Time
EST
Wind Sea
Height
m
Swell Vis
km
Cloud Weather Temp
°C
Press
MSL
hPa
Rain since
9am
mm
Dir  Spd
kts
Gust
kts
Height
m
Period
s
Dir
22/02:00pm ESE 26 32 - - - - - - - 23.8 1016.6 0.0
22/01:30pm ESE 27 33 - - - - - - - 24.1 1016.8 0.0
22/01:00pm SE 27 35 - - - - - - - 24.3 1017.1 0.0
22/12:30pm ESE 25 31 - - - - - - - 24.4 1017.5 0.0
22/12:00pm SE 29 34 - - - - - - - 24.5 1017.7 0.0
22/11:46am ESE 25 35 - - - - - - - 24.4 1017.9 0.0
22/11:30am SE 27 34 - - - - - - - 24.3 1018.0 0.0
22/11:00am ESE 27 34 - - - - - - - 24.1 1018.1 0.0
22/10:30am SE 28 33 - - - - - - - 23.8 1018.2 0.0
22/10:00am SE 30 34 - - - - - - - 23.6 1018.1 0.0
22/09:30am SE 30 35 - - - - - - - 23.4 1018.1 0.0
22/09:00am SE 30 35 - - - - - - - 23.3 1017.8 0.0
22/08:30am SE 30 35 - - - - - - - 23.3 1017.4 0.0
22/08:00am SE 31 38 - - - - - - - 23.4 1016.8 0.0
22/07:30am SE 30 35 - - - - - - - 23.5 1016.1 0.0
22/07:00am SE 24 29 - - - - - - - 23.7 1015.5 0.0
22/06:30am SE 28 34 - - - - - - - 23.5 1014.9 0.0
22/06:00am SE 22 29 - - - - - - - 23.6 1014.4 0.0
22/05:56am SE 19 29 - - - - - - - 23.7 1014.4 0.0
22/05:30am SE 17 19 - - - - - - - 23.5 1013.9 0.0
22/05:00am SE 18 25 - - - - - - - 23.2 1013.7 0.0
22/04:51am SE 15 25 - - - - - - - 23.0 1013.6 0.0
22/04:30am SE 10 12 - - - - - - - 22.6 1013.5 0.0
22/04:00am SE 10 13 - - - - - - - 22.7 1013.2 0.0
22/03:30am ESE 7 9 - - - - - - - 22.0 1013.1 0.0
22/03:00am S 7 8 - - - - - - - 22.0 1013.1 0.0
22/02:30am SSW 5 6 - - - - - - - 22.0 1013.1 0.0
22/02:00am SW 6 7 - - - - - - - 22.2 1013.3 0.0
22/01:30am SW 7 7 - - - - - - - 22.4 1013.7 0.0
22/01:00am SW 8 9 - - - - - - - 22.5 1013.9 0.0
22/12:30am WSW 7 8 - - - - - - - 23.1 1014.2 0.0
22/12:00am SW 7 7 - - - - - - - 23.1 1014.4 0.0
 
Date/Time
EST
Wind Sea
Height
m
Swell Vis
km
Cloud Weather Temp
°C
Press
MSL
hPa
Rain since
9am
mm
Dir  Spd
kts
Gust
kts
Height
m
Period
s
Dir
21/11:30pm WSW 8 9 - - - - - - - 23.0 1014.5 0.0
21/11:00pm SW 8 8 - - - - - - - 23.2 1014.7 0.0
21/10:30pm SW 6 7 - - - - - - - 23.4 1014.8 0.0
21/10:00pm SW 6 8 - - - - - - - 23.6 1014.9 0.0
21/09:30pm S 5 6 - - - - - - - 23.8 1014.8 0.0
21/09:00pm S 5 6 - - - - - - - 24.0 1014.6 0.0
21/08:30pm S 5 6 - - - - - - - 24.0 1014.3 0.0
21/08:00pm S 4 5 - - - - - - - 23.9 1014.2 0.0
21/07:30pm S 5 6 - - - - - - - 24.1 1013.7 0.0
21/07:00pm SSW 5 6 - - - - - - - 24.2 1013.2 0.0
21/06:30pm SSW 5 5 - - - - - - - 24.5 1012.9 0.0
21/06:00pm SSW 5 6 - - - - - - - 25.3 1012.7 0.0
21/05:30pm SSE 5 6 - - - - - - - 25.6 1012.7 0.0
21/05:00pm SSE 6 7 - - - - - - - 26.0 1012.6 0.0
21/04:30pm ESE 4 7 - - - - - - - 26.7 1012.4 0.0
21/04:00pm E 8 9 - - - - - - - 27.3 1012.3 0.0
21/03:30pm E 9 11 - - - - - - - 28.4 1012.4 0.0
21/03:00pm E 9 11 - - - - - - - 28.5 1012.6 0.0
21/02:30pm ENE 9 11 - - - - - - - 28.7 1012.6 0.0
21/02:00pm E 12 16 - - - - - - - 28.9 1012.8 0.0
21/01:30pm E 11 14 - - - - - - - 28.7 1013.4 0.0
21/01:00pm E 11 13 - - - - - - - 29.0 1013.7 0.0
21/12:30pm ESE 12 15 - - - - - - - 28.8 1014.3 0.0
21/12:00pm ESE 12 15 - - - - - - - 27.9 1015.1 0.0
21/11:30am SE 15 17 - - - - - - - 26.5 1015.5 0.0
21/11:00am ESE 15 18 - - - - - - - 26.3 1016.0 0.0
21/10:30am SE 14 16 - - - - - - - 25.8 1016.3 0.0
21/10:00am SE 10 12 - - - - - - - 24.7 1016.4 0.0
21/09:30am S 6 8 - - - - - - - 24.5 1016.3 0.0
21/09:00am SSW 6 7 - - - - - - - 23.5 1016.4 0.0
21/08:30am SSW 5 7 - - - - - - - 23.2 1016.3 0.0
21/08:00am SSW 5 6 - - - - - - - 22.8 1016.0 0.0
21/07:30am SSW 6 8 - - - - - - - 22.5 1015.6 0.0
21/07:00am SSE 10 13 - - - - - - - 22.7 1015.2 0.0
21/06:30am SSE 12 13 - - - - - - - 23.0 1014.9 0.0
21/06:00am SSE 13 15 - - - - - - - 22.7 1014.7 0.0
21/05:30am SSE 17 18 - - - - - - - 22.9 1014.5 0.0
21/05:00am SSE 16 18 - - - - - - - 22.7 1014.3 0.0
21/04:30am SE 16 19 - - - - - - - 22.4 1014.1 0.0
21/04:00am S 11 13 - - - - - - - 22.1 1014.1 0.0
21/03:30am SE 16 19 - - - - - - - 22.5 1014.1 0.0
21/03:00am SSE 12 17 - - - - - - - 22.3 1014.4 0.0
21/02:30am SE 17 19 - - - - - - - 22.7 1014.7 0.0
21/02:00am SE 17 19 - - - - - - - 22.7 1014.8 0.0
21/01:30am SE 17 19 - - - - - - - 22.9 1015.2 0.0
21/01:00am SE 14 16 - - - - - - - 23.0 1015.6 0.0
21/12:30am SE 13 16 - - - - - - - 23.0 1016.0 0.0
21/12:00am SE 13 15 - - - - - - - 23.2 1016.5 0.0
 
Date/Time
EST
Wind Sea
Height
m
Swell Vis
km
Cloud Weather Temp
°C
Press
MSL
hPa
Rain since
9am
mm
Dir  Spd
kts
Gust
kts
Height
m
Period
s
Dir
20/11:30pm SE 13 16 - - - - - - - 23.3 1016.7 0.0
20/11:00pm SE 15 18 - - - - - - - 23.2 1016.8 0.0
20/10:30pm SE 16 19 - - - - - - - 23.5 1017.0 0.0
20/10:00pm SE 17 19 - - - - - - - 23.8 1017.2 0.0
20/09:30pm SE 16 19 - - - - - - - 23.8 1017.1 0.0
20/09:00pm ESE 17 21 - - - - - - - 23.9 1016.8 0.0
20/08:30pm ESE 17 20 - - - - - - - 24.0 1016.5 0.0
20/08:00pm ESE 15 19 - - - - - - - 24.0 1016.3 0.0
20/07:30pm ESE 17 20 - - - - - - - 24.0 1016.0 0.0
20/07:00pm ESE 16 21 - - - - - - - 23.9 1015.8 0.0
20/06:30pm ESE 17 21 - - - - - - - 24.0 1015.7 0.0
20/06:00pm ESE 16 19 - - - - - - - 24.4 1015.5 0.0
20/05:30pm ESE 16 19 - - - - - - - 24.3 1015.1 0.0
20/05:00pm ESE 17 20 - - - - - - - 25.0 1014.9 0.0
20/04:30pm ESE 15 19 - - - - - - - 25.3 1014.9 0.0
20/04:00pm ESE 14 18 - - - - - - - 26.0 1014.9 0.0
20/03:30pm ESE 15 18 - - - - - - - 26.4 1015.0 0.0
20/03:00pm ESE 13 16 - - - - - - - 27.0 1015.1 0.0
20/02:30pm ESE 14 17 - - - - - - - 27.9 1015.3 0.0
20/02:00pm ESE 15 19 - - - - - - - 27.8 1015.9 0.0
20/01:30pm ESE 15 19 - - - - - - - 28.2 1016.3 0.0
20/01:00pm ESE 17 19 - - - - - - - 27.2 1016.7 0.0
20/12:30pm ESE 17 20 - - - - - - - 26.7 1017.3 0.0
20/12:00pm SE 15 18 - - - - - - - 26.3 1017.8 0.0
20/11:30am SE 14 17 - - - - - - - 26.4 1017.9 0.0
20/11:00am ESE 13 18 - - - - - - - 25.0 1018.4 0.0
20/10:30am SE 13 16 - - - - - - - 24.9 1018.8 0.0
20/10:00am SE 13 15 - - - - - - - 25.3 1018.8 0.0
20/09:30am SE 12 15 - - - - - - - 24.9 1018.8 0.0
20/09:00am SE 15 17 - - - - - - - 24.1 1018.8 0.0
20/08:30am SE 14 19 - - - - - - - 24.0 1018.6 0.0
20/08:00am SSE 14 18 - - - - - - - 23.8 1018.1 0.0
20/07:30am SSE 14 17 - - - - - - - 23.6 1017.7 0.0
20/07:00am SE 14 17 - - - - - - - 23.3 1017.4 0.0
20/06:30am SSE 15 17 - - - - - - - 23.1 1017.2 0.0
20/06:00am SSE 17 19 - - - - - - - 23.0 1016.7 0.0
20/05:30am SE 16 18 - - - - - - - 23.0 1016.5 0.0
20/05:00am SE 15 19 - - - - - - - 23.3 1016.5 0.0
20/04:30am SE 17 19 - - - - - - - 23.0 1016.5 0.0
20/04:00am SSE 12 14 - - - - - - - 23.3 1016.4 0.0
20/03:30am SSE 14 16 - - - - - - - 23.2 1016.3 0.0
20/03:00am SE 15 18 - - - - - - - 23.3 1016.5 0.0
20/02:30am SSE 14 17 - - - - - - - 23.0 1016.7 0.0
20/02:00am SSE 12 14 - - - - - - - 23.1 1017.1 0.0
20/01:30am SSE 15 17 - - - - - - - 23.1 1017.6 0.0
20/01:00am SSE 13 17 - - - - - - - 23.3 1017.9 0.0
20/12:30am SSE 15 17 - - - - - - - 23.6 1018.3 0.0
20/12:00am SSE 12 14 - - - - - - - 23.5 1018.6 0.0
 
Date/Time
EST
Wind Sea
Height
m
Swell Vis
km
Cloud Weather Temp
°C
Press
MSL
hPa
Rain since
9am
mm
Dir  Spd
kts
Gust
kts
Height
m
Period
s
Dir
19/11:30pm SE 16 17 - - - - - - - 23.4 1019.0 0.0
19/11:00pm SSE 13 15 - - - - - - - 23.2 1019.3 0.0
19/10:30pm SSE 14 17 - - - - - - - 23.3 1019.4 0.0
19/10:00pm SSE 15 18 - - - - - - - 23.1 1019.4 0.0
19/09:30pm SE 14 17 - - - - - - - 23.9 1019.4 0.0
19/09:00pm SE 17 20 - - - - - - - 23.9 1019.2 0.0
19/08:30pm SE 19 22 - - - - - - - 24.1 1019.0 0.0
19/08:00pm SE 18 21 - - - - - - - 24.0 1018.7 0.0
19/07:30pm ESE 19 25 - - - - - - - 23.8 1018.2 0.0
19/07:00pm SE 17 19 - - - - - - - 24.0 1018.0 0.0
19/06:30pm SE 16 18 - - - - - - - 23.9 1017.8 0.0
19/06:00pm ESE 18 22 - - - - - - - 23.9 1017.5 0.0
19/05:30pm ESE 17 19 - - - - - - - 24.3 1017.0 0.0
19/05:00pm ESE 16 21 - - - - - - - 24.6 1016.7 0.0
19/04:30pm ESE 17 21 - - - - - - - 25.2 1016.6 0.0
19/04:00pm ESE 17 20 - - - - - - - 25.8 1016.6 0.0
19/03:30pm ESE 17 19 - - - - - - - 26.3 1016.7 0.0
19/03:00pm ESE 17 20 - - - - - - - 26.8 1016.8 0.0
19/02:30pm ESE 17 21 - - - - - - - 26.8 1017.0 0.0

Other formats

Comma delimited format used in spreadsheet applications
http://www.bom.gov.au/fwo/IDQ60701/IDQ60701.94285.axf

JavaScript Object Notation format (JSON) in row-major order
http://www.bom.gov.au/fwo/IDQ60701/IDQ60701.94285.json

Data quality

Most of these data are generated automatically and are frequently updated. Quality checks on data are not normally performed. It is possible for incorrect values to appear. Refer to information at About Latest Weather Observations and please check the disclaimer before using these data.